Leland, Iowa
Current Conditions -  °F | °C
As of 1:55 PM on Monday 22 Dec 2014 (Local Time) from KFXY Reporting Station
Moderate Rain Moderate Rain  
Wind Chill: 27°   Ceiling: 400
Heat Index: 36°   Visibility: 3mi
Dew Point: 34°   Wind: 13mph
Humidity: 93%   Direction: 120°ESE
Pressure: 29.52"   Gusts: 18mph
Location:  43.34°N, 93.64°W
Report Text: KFXY 221955Z AUTO 12011G16KT 3SM RA OVC004 02/01 A2952 RMK AO2
Loading
Personal Weather Stations






























Interactive Weather Map New forecast layout! Learn more

10-Day Weather Forecast

Advertisements
Track Severe Weather on mobile